ED1ZAE-C
43.27.97N 005.40.54W
IN73DL aprs.fi
zuletzt gehoert:
2021-12-02T06:33:49Z
zuerst gehoert:
2020-02-15T11:24:11Z

APRS Gijón/Xixón [IN73DL], 0 Stunde(n), ED1ZAE-C [07:44:27, 0s].
ED1ZAS 43.27.52N 005.40.17WIN73DL 0.216km 116°ESE06:34:42ZRD985 438.2250/430.6250 CC1
ED1ZAE 43.27.99N 005.40.54WIN73DL 0.815km 338°NNW06:39:44Z2m Voice 145.5875 -0.600 Mhz(3ED1ZAE-C)
400 M. PICO SAN MARTIN (GIJON) 13.3V,9.4C(2ED1ZAE-3)
EA1DZR 43.31.48N 005.40.00WIN73EM 7.236km N06:34:10ZMMDVM DVS 434.3500/434.3500 CC1
EB1GEM 43.30.00N 005.36.07WIN73EM 7.277km 52°NE06:44:19ZWX3in1Plus2.0 U=13.3V,T=??.?C/??.?F(3EB1GEM-3)
EA1FFA 43.31.53N 005.40.64WIN73DM 7.346km 357°N06:33:52ZMMDVM MMDVM HS Hat 438.8000/438.8000 CC1
EA1IPU 43.26.21N 005.46.62WIN73CK 8.838km 253°WSW06:32:25ZMMDVM MMDVM HS Hat 439.8000/439.8000 CC1
EB1TK 43.32.22N 005.42.32WIN73DM 9.021km 343°NNW06:37:43ZWind 329°/006kn, Böen bis 011kn, Temp 9.44c, Regen 0.3mm, letzte 24h 16.5mm, seit 0h 16.5mm, Baro 1020.1h, Hum: 81%(3EB1TK-13)
LEEL 43.32.98N 005.41.71WIN73DN 10.177km 349°N06:32:30ZHelipuerto de El Musel: LEAS 020530Z VRB06G19KT 9999 SCT032 SCT050 10/04 Q1017 NOSIG=
EA1ABW 43.24.77N 005.47.77WIN73CJ 11.296km 243°WSW06:32:39ZMMDVM MMDVM HS Hat 439.8250/439.8250 CC1
EA1FLQ 43.22.00N 005.36.35WIN73EI 11.638km 153°SSE06:32:44ZMMDVM DVMega 439.9750/439.9750 CC1
LEMR 43.25.83N 005.49.60WIN73CK 12.907km 255°WSW06:32:29ZAerodromo de la Morgal: LEAS 020530Z VRB06G19KT 9999 SCT032 SCT050 10/04 Q1017 NOSIG=
LEGM 43.26.15N 005.49.84WIN73CK 13.070km 258°WSW06:32:24ZHelipuerto de La Morgal: LEAS 020530Z VRB06G19KT 9999 SCT032 SCT050 10/04 Q1017 NOSIG=
LEHU 43.22.63N 005.49.57WIN73CJ 15.472km 234°SW06:32:24ZHelipuerto del HUCA: LEAS 020530Z VRB06G19KT 9999 SCT032 SCT050 10/04 Q1017 NOSIG=
33D00 43.21.63N 005.51.13WIN73BI 18.254km 233°SW06:02:43Z33-D-00 Protección Civil REMER / Delegación del Gobierno en Asturias
EA1YR 43.22.09N 005.51.86WIN73BI 18.566km 237°WSW06:34:33ZMMDVM DVS 434.3500/434.3500 CC1
EA1JAY 43.21.54N 005.51.34WIN73BI 18.591km 233°SW06:32:33ZEA1JAY(3EA1JAY-2)
434.525MHz Nodo TETRA DMO(2EA1JAY-4)
ED1ZAU 43.23.04N 005.52.75WIN73BJ 18.734km 243°WSW06:34:42ZRD625 438.5000/430.9000 CC1
EA1FHR 43.28.72N 005.26.41WIN73GL 18.816km 83°E06:32:43ZMMDVM MMDVM HS Hat 439.1500/439.1500 CC1
EA1HWD 43.28.96N 005.26.30WIN73GL 19.031km 82°E06:32:56Z144.575FM Local frecuency VHF. 434.2500/434.2500 CC1
EA1HJA 43.21.47N 005.52.09WIN73BI 19.471km 235°SW06:43:04Z IN73FL WX3IN1+ 2.0 - V=13.2V,TX TEMP=22.5C(3EA1HJA-2)
EA1HJA@URE.ES(2EA1HJA)
EA1L 43.20.37N 005.51.13WIN73BI 19.742km 228°SW06:41:32Zea1l@ure.es V=13.6V,T=??.?C
Wind 264°/001kn, Böen bis 003kn, Temp 10.00c, Regen 0.5mm, letzte 24h 23.1mm, seit 0h 23.1mm, Baro 1015.8h, Hum: 0%(2EA1L-13)
EA1AHA 43.32.72N 005.54.38WIN73BN 21.163km 297°WNW06:40:58ZWind 000°/008kn, Böen bis 010kn, Temp 11.67c, Regen 0.0mm, letzte 24h 0.0mm, seit 0h 0.0mm, Baro 1019.2h, Hum: 62%(3EA1AHA-13)
ED1ZAY 43.29.47N 005.56.54WIN73AL 22.100km 279°W06:34:42ZRD625 438.3000/430.7000 CC1
EA1IMW 43.14.36N 005.46.93WIN73CF 26.067km 200°SSW06:34:11ZGRUPO RADIO GALENA (GRG) 433.4500/433.4500 CC1
EA1DHE 43.33.98N 005.58.57WIN73AN 27.243km 296°WNW06:34:26ZMMDVM DVS 434.3500/434.3500 CC1
EB1DGC 43.12.60N 005.45.59WIN73CF 28.657km 194°SSW06:32:57ZMMDVM MMDVM HS Hat 433.4500/433.4500 CC1
EA1JBL 43.12.28N 005.47.42WIN73CE 29.910km 199°SSW06:34:03ZMMDVM DVMega 435.3000/435.3000 CC1
EA1HWA 43.12.00N 005.47.40WIN73CE 30.407km 198°SSW06:32:27ZMMDVM MMDVM HS Hat 433.4500/433.4500 CC1
EA1JBU 43.30.80N 005.16.20WIN73IM 32.962km 79°E06:32:31ZEA1JBU(3EA1JBU-2)
EA1JBE 43.30.90N 005.16.15WIN73IM 33.075km 79°E06:32:22ZEA1JBU(3EA1JBE-13)
MAIN QTH http://qrz.com/db/ea1jbe(2EA1JBE-1)
EA1RCG 43.09.45N 005.49.78WIN73CD 35.923km 201°SSW06:32:36ZGRUPO RADIO GALENA (GRG) 433.4500/433.4500 CC1
ED1ZAD 43.07.90N 005.38.52WIN73ED 36.532km 176°S06:25:21ZED1ZAD-3 APRS Digi/Igate(3ED1ZAD-3)
ED1ZBF 43.19.16N 005.06.74WIN73KH 47.820km 109°ESE06:34:42ZRD625 438.4750/430.8750 CC1
EC1KV 43.34.01N 006.16.01WIN63UN 49.412km 284°WNW06:18:03ZALBUERNE(3EC1KV-1)

aprs.pl 5.0.011w DL3EL © 2006-2021 [1171956]